sensor_id;sensor_type;location;lat;lon;timestamp;P1;durP1;ratioP1;P2;durP2;ratioP2
2157;SDS011;41972;48.774;9.282;2022-09-30T00:02:09;28.17;;;26.13;;
2157;SDS011;41972;48.774;9.282;2022-09-30T00:04:36;22.50;;;20.50;;
2157;SDS011;41972;48.774;9.282;2022-09-30T00:07:02;28.03;;;25.97;;
2157;SDS011;41972;48.774;9.282;2022-09-30T00:09:28;24.77;;;22.53;;
2157;SDS011;41972;48.774;9.282;2022-09-30T00:11:54;23.73;;;21.90;;
2157;SDS011;41972;48.774;9.282;2022-09-30T00:14:20;24.20;;;21.70;;
2157;SDS011;41972;48.774;9.282;2022-09-30T00:16:47;20.77;;;19.00;;
2157;SDS011;41972;48.774;9.282;2022-09-30T00:19:13;20.33;;;18.70;;
2157;SDS011;41972;48.774;9.282;2022-09-30T00:21:39;33.97;;;31.57;;
2157;SDS011;41972;48.774;9.282;2022-09-30T00:24:04;23.57;;;21.87;;
2157;SDS011;41972;48.774;9.282;2022-09-30T00:26:31;38.57;;;36.37;;
2157;SDS011;41972;48.774;9.282;2022-09-30T00:28:58;26.47;;;24.37;;
2157;SDS011;41972;48.774;9.282;2022-09-30T00:31:26;24.93;;;22.90;;
2157;SDS011;41972;48.774;9.282;2022-09-30T00:33:53;20.13;;;18.40;;
2157;SDS011;41972;48.774;9.282;2022-09-30T00:36:35;20.43;;;18.63;;
2157;SDS011;41972;48.774;9.282;2022-09-30T00:39:02;25.90;;;24.00;;
2157;SDS011;41972;48.774;9.282;2022-09-30T00:41:29;19.10;;;17.40;;
2157;SDS011;41972;48.774;9.282;2022-09-30T00:43:56;22.13;;;20.20;;
2157;SDS011;41972;48.774;9.282;2022-09-30T00:46:37;18.57;;;16.97;;
2157;SDS011;41972;48.774;9.282;2022-09-30T00:49:06;19.03;;;17.40;;
2157;SDS011;41972;48.774;9.282;2022-09-30T00:51:39;16.90;;;15.53;;
2157;SDS011;41972;48.774;9.282;2022-09-30T00:54:09;23.60;;;21.83;;
2157;SDS011;41972;48.774;9.282;2022-09-30T00:56:41;20.57;;;19.10;;
2157;SDS011;41972;48.774;9.282;2022-09-30T00:59:12;60.80;;;58.00;;
2157;SDS011;41972;48.774;9.282;2022-09-30T01:01:40;26.20;;;24.10;;
2157;SDS011;41972;48.774;9.282;2022-09-30T01:06:39;24.87;;;23.00;;
2157;SDS011;41972;48.774;9.282;2022-09-30T01:09:06;28.37;;;26.73;;
2157;SDS011;41972;48.774;9.282;2022-09-30T01:11:32;78.67;;;75.53;;
2157;SDS011;41972;48.774;9.282;2022-09-30T01:14:04;29.13;;;27.33;;
2157;SDS011;41972;48.774;9.282;2022-09-30T01:33:44;17.03;;;15.57;;
2157;SDS011;41972;48.774;9.282;2022-09-30T01:46:38;19.13;;;17.67;;
2157;SDS011;41972;48.774;9.282;2022-09-30T01:49:15;21.40;;;19.90;;
2157;SDS011;41972;48.774;9.282;2022-09-30T01:52:10;24.07;;;21.93;;
2157;SDS011;41972;48.774;9.282;2022-09-30T01:54:42;20.23;;;18.63;;
2157;SDS011;41972;48.774;9.282;2022-09-30T01:59:59;21.37;;;19.37;;
2157;SDS011;41972;48.774;9.282;2022-09-30T02:02:55;20.00;;;18.50;;
2157;SDS011;41972;48.774;9.282;2022-09-30T02:05:40;19.10;;;17.37;;
2157;SDS011;41972;48.774;9.282;2022-09-30T02:08:27;27.47;;;25.57;;
2157;SDS011;41972;48.774;9.282;2022-09-30T02:11:17;26.67;;;24.57;;
2157;SDS011;41972;48.774;9.282;2022-09-30T02:13:51;21.20;;;19.30;;
2157;SDS011;41972;48.774;9.282;2022-09-30T02:16:39;36.43;;;34.17;;
2157;SDS011;41972;48.774;9.282;2022-09-30T02:19:37;27.23;;;25.43;;
2157;SDS011;41972;48.774;9.282;2022-09-30T02:22:07;26.00;;;23.90;;
2157;SDS011;41972;48.774;9.282;2022-09-30T02:24:40;25.20;;;23.40;;
2157;SDS011;41972;48.774;9.282;2022-09-30T02:27:10;25.13;;;23.27;;
2157;SDS011;41972;48.774;9.282;2022-09-30T02:29:42;24.20;;;22.27;;
2157;SDS011;41972;48.774;9.282;2022-09-30T02:32:21;24.23;;;22.53;;
2157;SDS011;41972;48.774;9.282;2022-09-30T02:34:56;34.67;;;32.47;;
2157;SDS011;41972;48.774;9.282;2022-09-30T02:37:27;37.63;;;35.47;;
2157;SDS011;41972;48.774;9.282;2022-09-30T02:42:34;39.50;;;37.40;;
2157;SDS011;41972;48.774;9.282;2022-09-30T02:45:02;38.07;;;36.10;;
2157;SDS011;41972;48.774;9.282;2022-09-30T02:53:15;33.47;;;31.77;;
2157;SDS011;41972;48.774;9.282;2022-09-30T02:58:26;24.30;;;22.27;;
2157;SDS011;41972;48.774;9.282;2022-09-30T03:00:54;21.30;;;19.80;;
2157;SDS011;41972;48.774;9.282;2022-09-30T03:03:26;21.70;;;20.10;;
2157;SDS011;41972;48.774;9.282;2022-09-30T03:05:57;30.73;;;28.57;;
2157;SDS011;41972;48.774;9.282;2022-09-30T03:08:23;22.27;;;20.50;;
2157;SDS011;41972;48.774;9.282;2022-09-30T03:10:49;27.30;;;25.30;;
2157;SDS011;41972;48.774;9.282;2022-09-30T03:21:51;22.77;;;20.90;;
2157;SDS011;41972;48.774;9.282;2022-09-30T03:35:18;22.00;;;20.10;;
2157;SDS011;41972;48.774;9.282;2022-09-30T03:45:51;24.77;;;22.67;;
2157;SDS011;41972;48.774;9.282;2022-09-30T03:48:30;20.00;;;18.47;;
2157;SDS011;41972;48.774;9.282;2022-09-30T03:50:57;22.37;;;20.43;;
2157;SDS011;41972;48.774;9.282;2022-09-30T03:53:23;22.30;;;20.40;;
2157;SDS011;41972;48.774;9.282;2022-09-30T03:55:50;24.43;;;21.43;;
2157;SDS011;41972;48.774;9.282;2022-09-30T03:58:18;23.50;;;21.53;;
2157;SDS011;41972;48.774;9.282;2022-09-30T04:00:48;22.27;;;20.37;;
2157;SDS011;41972;48.774;9.282;2022-09-30T04:03:15;21.07;;;19.37;;
2157;SDS011;41972;48.774;9.282;2022-09-30T04:05:41;22.50;;;20.80;;
2157;SDS011;41972;48.774;9.282;2022-09-30T04:08:07;22.40;;;20.37;;
2157;SDS011;41972;48.774;9.282;2022-09-30T04:10:34;22.53;;;20.50;;
2157;SDS011;41972;48.774;9.282;2022-09-30T04:12:59;27.53;;;25.53;;
2157;SDS011;41972;48.774;9.282;2022-09-30T04:15:25;26.87;;;24.67;;
2157;SDS011;41972;48.774;9.282;2022-09-30T04:17:51;37.73;;;35.37;;
2157;SDS011;41972;48.774;9.282;2022-09-30T04:20:17;22.43;;;20.67;;
2157;SDS011;41972;48.774;9.282;2022-09-30T04:22:42;23.50;;;21.50;;
2157;SDS011;41972;48.774;9.282;2022-09-30T04:25:09;24.63;;;22.63;;
2157;SDS011;41972;48.774;9.282;2022-09-30T04:27:35;25.60;;;23.00;;
2157;SDS011;41972;48.774;9.282;2022-09-30T04:30:00;25.63;;;23.50;;
2157;SDS011;41972;48.774;9.282;2022-09-30T04:32:26;28.73;;;25.83;;
2157;SDS011;41972;48.774;9.282;2022-09-30T04:34:52;31.00;;;28.20;;
2157;SDS011;41972;48.774;9.282;2022-09-30T04:37:18;33.63;;;30.20;;
2157;SDS011;41972;48.774;9.282;2022-09-30T04:39:44;33.00;;;29.80;;
2157;SDS011;41972;48.774;9.282;2022-09-30T04:42:09;31.17;;;28.10;;
2157;SDS011;41972;48.774;9.282;2022-09-30T04:44:36;32.53;;;29.93;;
2157;SDS011;41972;48.774;9.282;2022-09-30T04:47:01;49.93;;;46.43;;
2157;SDS011;41972;48.774;9.282;2022-09-30T04:49:27;46.40;;;43.20;;
2157;SDS011;41972;48.774;9.282;2022-09-30T04:51:53;53.03;;;49.30;;
2157;SDS011;41972;48.774;9.282;2022-09-30T04:54:18;39.40;;;36.10;;
2157;SDS011;41972;48.774;9.282;2022-09-30T04:56:44;50.20;;;46.10;;
2157;SDS011;41972;48.774;9.282;2022-09-30T04:59:09;42.67;;;39.70;;
2157;SDS011;41972;48.774;9.282;2022-09-30T05:01:35;38.33;;;35.27;;
2157;SDS011;41972;48.774;9.282;2022-09-30T05:04:01;41.07;;;37.90;;
2157;SDS011;41972;48.774;9.282;2022-09-30T05:06:27;39.00;;;35.90;;
2157;SDS011;41972;48.774;9.282;2022-09-30T05:08:53;42.30;;;39.20;;
2157;SDS011;41972;48.774;9.282;2022-09-30T05:11:19;36.57;;;33.33;;
2157;SDS011;41972;48.774;9.282;2022-09-30T05:13:45;40.23;;;37.10;;
2157;SDS011;41972;48.774;9.282;2022-09-30T05:16:12;32.60;;;29.90;;
2157;SDS011;41972;48.774;9.282;2022-09-30T05:18:38;25.47;;;23.23;;
2157;SDS011;41972;48.774;9.282;2022-09-30T05:21:06;32.77;;;29.47;;
2157;SDS011;41972;48.774;9.282;2022-09-30T05:23:32;32.03;;;29.27;;
2157;SDS011;41972;48.774;9.282;2022-09-30T05:25:58;31.40;;;28.13;;
2157;SDS011;41972;48.774;9.282;2022-09-30T05:28:25;36.17;;;33.33;;
2157;SDS011;41972;48.774;9.282;2022-09-30T05:30:57;32.37;;;29.00;;
2157;SDS011;41972;48.774;9.282;2022-09-30T05:33:25;29.70;;;27.17;;
2157;SDS011;41972;48.774;9.282;2022-09-30T05:35:57;33.10;;;30.20;;
2157;SDS011;41972;48.774;9.282;2022-09-30T05:38:25;33.63;;;29.37;;
2157;SDS011;41972;48.774;9.282;2022-09-30T05:40:50;32.90;;;29.77;;
2157;SDS011;41972;48.774;9.282;2022-09-30T05:43:16;38.40;;;34.33;;
2157;SDS011;41972;48.774;9.282;2022-09-30T05:45:50;32.73;;;29.47;;
2157;SDS011;41972;48.774;9.282;2022-09-30T05:48:20;35.67;;;31.57;;
2157;SDS011;41972;48.774;9.282;2022-09-30T05:50:45;40.87;;;36.90;;
2157;SDS011;41972;48.774;9.282;2022-09-30T05:53:14;32.03;;;28.83;;
2157;SDS011;41972;48.774;9.282;2022-09-30T05:55:43;32.57;;;29.70;;
2157;SDS011;41972;48.774;9.282;2022-09-30T05:58:10;30.40;;;27.37;;
2157;SDS011;41972;48.774;9.282;2022-09-30T06:00:37;34.77;;;31.77;;
2157;SDS011;41972;48.774;9.282;2022-09-30T06:03:04;28.57;;;26.00;;
2157;SDS011;41972;48.774;9.282;2022-09-30T06:05:30;31.90;;;29.07;;
2157;SDS011;41972;48.774;9.282;2022-09-30T06:07:55;42.93;;;40.03;;
2157;SDS011;41972;48.774;9.282;2022-09-30T06:10:21;40.17;;;37.17;;
2157;SDS011;41972;48.774;9.282;2022-09-30T06:12:48;42.10;;;38.73;;
2157;SDS011;41972;48.774;9.282;2022-09-30T06:15:13;37.93;;;34.30;;
2157;SDS011;41972;48.774;9.282;2022-09-30T06:17:39;35.13;;;31.70;;
2157;SDS011;41972;48.774;9.282;2022-09-30T06:20:07;35.33;;;32.37;;
2157;SDS011;41972;48.774;9.282;2022-09-30T06:22:34;97.77;;;45.13;;
2157;SDS011;41972;48.774;9.282;2022-09-30T06:25:05;59.97;;;41.60;;
2157;SDS011;41972;48.774;9.282;2022-09-30T06:27:34;159.87;;;52.17;;
2157;SDS011;41972;48.774;9.282;2022-09-30T06:30:01;61.80;;;56.50;;
2157;SDS011;41972;48.774;9.282;2022-09-30T06:32:27;34.83;;;32.20;;
2157;SDS011;41972;48.774;9.282;2022-09-30T06:34:54;31.80;;;29.50;;
2157;SDS011;41972;48.774;9.282;2022-09-30T06:37:20;47.80;;;44.93;;
2157;SDS011;41972;48.774;9.282;2022-09-30T06:39:47;28.43;;;25.93;;
2157;SDS011;41972;48.774;9.282;2022-09-30T06:42:14;26.50;;;24.50;;
2157;SDS011;41972;48.774;9.282;2022-09-30T06:44:39;51.80;;;48.90;;
2157;SDS011;41972;48.774;9.282;2022-09-30T06:47:05;33.53;;;31.10;;
2157;SDS011;41972;48.774;9.282;2022-09-30T06:49:31;49.07;;;46.13;;
2157;SDS011;41972;48.774;9.282;2022-09-30T06:51:58;41.60;;;38.97;;
2157;SDS011;41972;48.774;9.282;2022-09-30T06:54:25;24.97;;;22.67;;
2157;SDS011;41972;48.774;9.282;2022-09-30T06:56:52;24.10;;;22.30;;
2157;SDS011;41972;48.774;9.282;2022-09-30T06:59:19;29.23;;;27.13;;
2157;SDS011;41972;48.774;9.282;2022-09-30T07:01:44;27.77;;;26.07;;
2157;SDS011;41972;48.774;9.282;2022-09-30T07:04:10;24.20;;;22.30;;
2157;SDS011;41972;48.774;9.282;2022-09-30T07:06:36;20.17;;;18.70;;
2157;SDS011;41972;48.774;9.282;2022-09-30T07:09:03;21.33;;;19.73;;
2157;SDS011;41972;48.774;9.282;2022-09-30T07:11:33;15.47;;;14.23;;
2157;SDS011;41972;48.774;9.282;2022-09-30T07:13:58;29.30;;;27.60;;
2157;SDS011;41972;48.774;9.282;2022-09-30T07:16:24;25.07;;;23.20;;
2157;SDS011;41972;48.774;9.282;2022-09-30T07:18:49;18.77;;;17.27;;
2157;SDS011;41972;48.774;9.282;2022-09-30T07:21:15;37.53;;;35.63;;
2157;SDS011;41972;48.774;9.282;2022-09-30T07:23:44;45.13;;;42.83;;
2157;SDS011;41972;48.774;9.282;2022-09-30T07:26:15;45.37;;;43.17;;
2157;SDS011;41972;48.774;9.282;2022-09-30T07:28:42;25.73;;;24.23;;
2157;SDS011;41972;48.774;9.282;2022-09-30T07:31:11;22.97;;;21.57;;
2157;SDS011;41972;48.774;9.282;2022-09-30T07:33:41;20.90;;;19.40;;
2157;SDS011;41972;48.774;9.282;2022-09-30T07:36:07;30.23;;;28.13;;
2157;SDS011;41972;48.774;9.282;2022-09-30T07:38:36;30.57;;;28.50;;
2157;SDS011;41972;48.774;9.282;2022-09-30T07:41:06;34.47;;;32.20;;
2157;SDS011;41972;48.774;9.282;2022-09-30T07:43:34;39.27;;;36.97;;
2157;SDS011;41972;48.774;9.282;2022-09-30T07:46:08;26.57;;;24.37;;
2157;SDS011;41972;48.774;9.282;2022-09-30T07:48:37;26.53;;;24.20;;
2157;SDS011;41972;48.774;9.282;2022-09-30T07:51:15;26.87;;;24.67;;
2157;SDS011;41972;48.774;9.282;2022-09-30T07:53:48;34.00;;;31.57;;
2157;SDS011;41972;48.774;9.282;2022-09-30T07:56:15;28.70;;;26.60;;
2157;SDS011;41972;48.774;9.282;2022-09-30T07:58:42;23.67;;;22.00;;
2157;SDS011;41972;48.774;9.282;2022-09-30T08:01:08;20.30;;;18.90;;
2157;SDS011;41972;48.774;9.282;2022-09-30T08:03:35;35.43;;;33.53;;
2157;SDS011;41972;48.774;9.282;2022-09-30T08:06:13;51.13;;;48.83;;
2157;SDS011;41972;48.774;9.282;2022-09-30T08:08:40;24.03;;;22.43;;
2157;SDS011;41972;48.774;9.282;2022-09-30T08:11:07;19.07;;;17.73;;
2157;SDS011;41972;48.774;9.282;2022-09-30T08:13:34;29.53;;;27.83;;
2157;SDS011;41972;48.774;9.282;2022-09-30T08:15:59;33.53;;;31.60;;
2157;SDS011;41972;48.774;9.282;2022-09-30T08:18:25;35.27;;;33.30;;
2157;SDS011;41972;48.774;9.282;2022-09-30T08:20:52;67.57;;;64.63;;
2157;SDS011;41972;48.774;9.282;2022-09-30T08:23:18;35.37;;;33.40;;
2157;SDS011;41972;48.774;9.282;2022-09-30T08:25:43;29.70;;;27.97;;
2157;SDS011;41972;48.774;9.282;2022-09-30T08:28:09;49.60;;;47.03;;
2157;SDS011;41972;48.774;9.282;2022-09-30T08:30:35;28.70;;;26.80;;
2157;SDS011;41972;48.774;9.282;2022-09-30T08:33:01;61.87;;;59.03;;
2157;SDS011;41972;48.774;9.282;2022-09-30T08:35:27;64.83;;;61.77;;
2157;SDS011;41972;48.774;9.282;2022-09-30T08:37:52;69.70;;;66.80;;
2157;SDS011;41972;48.774;9.282;2022-09-30T08:40:27;53.93;;;51.13;;
2157;SDS011;41972;48.774;9.282;2022-09-30T08:51:33;24.37;;;22.67;;
2157;SDS011;41972;48.774;9.282;2022-09-30T08:54:04;20.50;;;18.97;;
2157;SDS011;41972;48.774;9.282;2022-09-30T08:56:33;17.67;;;16.23;;
2157;SDS011;41972;48.774;9.282;2022-09-30T08:59:04;18.57;;;16.83;;
2157;SDS011;41972;48.774;9.282;2022-09-30T09:01:40;25.03;;;23.43;;
2157;SDS011;41972;48.774;9.282;2022-09-30T09:04:10;19.73;;;18.33;;
2157;SDS011;41972;48.774;9.282;2022-09-30T09:12:27;19.60;;;18.17;;
2157;SDS011;41972;48.774;9.282;2022-09-30T09:15:32;19.93;;;18.63;;
2157;SDS011;41972;48.774;9.282;2022-09-30T09:20:57;22.70;;;21.10;;
2157;SDS011;41972;48.774;9.282;2022-09-30T09:23:28;17.67;;;16.40;;
2157;SDS011;41972;48.774;9.282;2022-09-30T09:25:56;18.80;;;17.50;;
2157;SDS011;41972;48.774;9.282;2022-09-30T09:28:36;18.43;;;17.03;;
2157;SDS011;41972;48.774;9.282;2022-09-30T09:31:24;15.93;;;14.93;;
2157;SDS011;41972;48.774;9.282;2022-09-30T09:33:49;24.33;;;23.03;;
2157;SDS011;41972;48.774;9.282;2022-09-30T09:36:35;26.27;;;24.97;;
2157;SDS011;41972;48.774;9.282;2022-09-30T09:39:38;15.33;;;14.07;;
2157;SDS011;41972;48.774;9.282;2022-09-30T09:42:25;19.43;;;18.13;;
2157;SDS011;41972;48.774;9.282;2022-09-30T09:44:59;40.70;;;39.00;;
2157;SDS011;41972;48.774;9.282;2022-09-30T09:47:41;19.17;;;17.97;;
2157;SDS011;41972;48.774;9.282;2022-09-30T09:50:15;13.07;;;12.20;;
2157;SDS011;41972;48.774;9.282;2022-09-30T09:55:27;13.03;;;12.07;;
2157;SDS011;41972;48.774;9.282;2022-09-30T09:58:09;16.13;;;14.80;;
2157;SDS011;41972;48.774;9.282;2022-09-30T10:00:41;18.63;;;17.33;;
2157;SDS011;41972;48.774;9.282;2022-09-30T10:03:17;19.17;;;17.77;;
2157;SDS011;41972;48.774;9.282;2022-09-30T10:05:58;22.10;;;20.60;;
2157;SDS011;41972;48.774;9.282;2022-09-30T10:08:25;16.77;;;15.30;;
2157;SDS011;41972;48.774;9.282;2022-09-30T10:10:54;24.67;;;23.17;;
2157;SDS011;41972;48.774;9.282;2022-09-30T10:13:31;21.10;;;19.67;;
2157;SDS011;41972;48.774;9.282;2022-09-30T10:18:56;22.23;;;20.67;;
2157;SDS011;41972;48.774;9.282;2022-09-30T10:21:23;23.07;;;21.40;;
2157;SDS011;41972;48.774;9.282;2022-09-30T10:23:51;33.87;;;32.10;;
2157;SDS011;41972;48.774;9.282;2022-09-30T10:26:18;58.30;;;56.00;;
2157;SDS011;41972;48.774;9.282;2022-09-30T10:28:55;49.80;;;47.40;;
2157;SDS011;41972;48.774;9.282;2022-09-30T10:31:26;52.03;;;49.47;;
2157;SDS011;41972;48.774;9.282;2022-09-30T10:36:28;33.10;;;31.50;;
2157;SDS011;41972;48.774;9.282;2022-09-30T10:38:58;23.70;;;21.83;;
2157;SDS011;41972;48.774;9.282;2022-09-30T10:41:30;22.27;;;20.87;;
2157;SDS011;41972;48.774;9.282;2022-09-30T10:43:58;22.60;;;21.20;;
2157;SDS011;41972;48.774;9.282;2022-09-30T10:46:27;23.57;;;22.17;;
2157;SDS011;41972;48.774;9.282;2022-09-30T10:49:06;16.80;;;15.60;;
2157;SDS011;41972;48.774;9.282;2022-09-30T10:51:47;25.10;;;23.80;;
2157;SDS011;41972;48.774;9.282;2022-09-30T10:57:04;49.83;;;47.77;;
2157;SDS011;41972;48.774;9.282;2022-09-30T10:59:37;24.60;;;23.40;;
2157;SDS011;41972;48.774;9.282;2022-09-30T11:02:13;17.83;;;16.73;;
2157;SDS011;41972;48.774;9.282;2022-09-30T11:04:42;19.27;;;18.17;;
2157;SDS011;41972;48.774;9.282;2022-09-30T11:07:29;25.07;;;23.97;;
2157;SDS011;41972;48.774;9.282;2022-09-30T11:10:05;28.33;;;26.93;;
2157;SDS011;41972;48.774;9.282;2022-09-30T11:12:51;21.17;;;19.87;;
2157;SDS011;41972;48.774;9.282;2022-09-30T11:18:38;14.30;;;12.97;;
2157;SDS011;41972;48.774;9.282;2022-09-30T11:21:11;11.47;;;10.50;;
2157;SDS011;41972;48.774;9.282;2022-09-30T11:23:47;10.40;;;9.60;;
2157;SDS011;41972;48.774;9.282;2022-09-30T11:28:58;8.90;;;8.10;;
2157;SDS011;41972;48.774;9.282;2022-09-30T11:37:01;26.17;;;25.00;;
2157;SDS011;41972;48.774;9.282;2022-09-30T11:44:38;10.50;;;9.80;;
2157;SDS011;41972;48.774;9.282;2022-09-30T11:58:12;29.23;;;28.03;;
2157;SDS011;41972;48.774;9.282;2022-09-30T12:00:42;17.27;;;16.47;;
2157;SDS011;41972;48.774;9.282;2022-09-30T12:03:17;9.77;;;9.27;;
2157;SDS011;41972;48.774;9.282;2022-09-30T12:05:53;19.07;;;18.27;;
2157;SDS011;41972;48.774;9.282;2022-09-30T12:08:29;11.47;;;10.90;;
2157;SDS011;41972;48.774;9.282;2022-09-30T12:13:42;6.60;;;6.10;;
2157;SDS011;41972;48.774;9.282;2022-09-30T12:16:16;12.77;;;12.03;;
2157;SDS011;41972;48.774;9.282;2022-09-30T12:18:47;9.87;;;9.30;;
2157;SDS011;41972;48.774;9.282;2022-09-30T12:23:49;13.70;;;12.83;;
2157;SDS011;41972;48.774;9.282;2022-09-30T12:26:26;18.00;;;17.20;;
2157;SDS011;41972;48.774;9.282;2022-09-30T12:28:53;12.37;;;11.67;;
2157;SDS011;41972;48.774;9.282;2022-09-30T12:48:18;16.23;;;15.53;;
2157;SDS011;41972;48.774;9.282;2022-09-30T12:50:53;6.97;;;6.67;;
2157;SDS011;41972;48.774;9.282;2022-09-30T12:53:31;9.33;;;8.93;;
2157;SDS011;41972;48.774;9.282;2022-09-30T12:56:07;13.23;;;12.60;;
2157;SDS011;41972;48.774;9.282;2022-09-30T12:58:44;8.80;;;8.40;;
2157;SDS011;41972;48.774;9.282;2022-09-30T13:01:16;13.00;;;12.50;;
2157;SDS011;41972;48.774;9.282;2022-09-30T13:06:23;29.70;;;28.67;;
2157;SDS011;41972;48.774;9.282;2022-09-30T13:11:31;11.23;;;10.63;;
2157;SDS011;41972;48.774;9.282;2022-09-30T13:19:47;7.47;;;7.00;;
2157;SDS011;41972;48.774;9.282;2022-09-30T13:27:28;8.50;;;8.00;;
2157;SDS011;41972;48.774;9.282;2022-09-30T13:30:00;9.63;;;9.23;;
2157;SDS011;41972;48.774;9.282;2022-09-30T13:32:33;8.40;;;8.00;;
2157;SDS011;41972;48.774;9.282;2022-09-30T13:35:02;8.20;;;7.70;;
2157;SDS011;41972;48.774;9.282;2022-09-30T13:41:13;20.37;;;19.67;;
2157;SDS011;41972;48.774;9.282;2022-09-30T13:46:27;11.57;;;11.17;;
2157;SDS011;41972;48.774;9.282;2022-09-30T13:49:00;8.00;;;7.60;;
2157;SDS011;41972;48.774;9.282;2022-09-30T13:51:49;10.33;;;9.83;;
2157;SDS011;41972;48.774;9.282;2022-09-30T13:54:29;8.50;;;7.77;;
2157;SDS011;41972;48.774;9.282;2022-09-30T13:57:02;10.03;;;9.63;;
2157;SDS011;41972;48.774;9.282;2022-09-30T14:02:59;17.27;;;16.60;;
2157;SDS011;41972;48.774;9.282;2022-09-30T14:11:10;9.53;;;9.07;;
2157;SDS011;41972;48.774;9.282;2022-09-30T14:19:07;11.60;;;11.20;;
2157;SDS011;41972;48.774;9.282;2022-09-30T14:21:42;9.93;;;9.43;;
2157;SDS011;41972;48.774;9.282;2022-09-30T14:24:16;11.00;;;10.50;;
2157;SDS011;41972;48.774;9.282;2022-09-30T14:34:57;12.87;;;12.37;;
2157;SDS011;41972;48.774;9.282;2022-09-30T14:39:58;7.10;;;6.80;;
2157;SDS011;41972;48.774;9.282;2022-09-30T14:42:35;8.07;;;7.67;;
2157;SDS011;41972;48.774;9.282;2022-09-30T14:45:03;16.70;;;16.03;;
2157;SDS011;41972;48.774;9.282;2022-09-30T14:47:31;9.13;;;8.67;;
2157;SDS011;41972;48.774;9.282;2022-09-30T14:50:10;24.30;;;23.50;;
2157;SDS011;41972;48.774;9.282;2022-09-30T14:52:41;23.47;;;22.73;;
2157;SDS011;41972;48.774;9.282;2022-09-30T14:55:26;12.13;;;11.67;;
2157;SDS011;41972;48.774;9.282;2022-09-30T15:00:49;6.97;;;6.67;;
2157;SDS011;41972;48.774;9.282;2022-09-30T15:03:26;30.50;;;29.27;;
2157;SDS011;41972;48.774;9.282;2022-09-30T15:05:52;14.87;;;14.17;;
2157;SDS011;41972;48.774;9.282;2022-09-30T15:08:19;28.97;;;27.87;;
2157;SDS011;41972;48.774;9.282;2022-09-30T15:10:47;26.40;;;25.40;;
2157;SDS011;41972;48.774;9.282;2022-09-30T15:13:15;8.50;;;8.00;;
2157;SDS011;41972;48.774;9.282;2022-09-30T15:15:42;10.30;;;9.40;;
2157;SDS011;41972;48.774;9.282;2022-09-30T15:21:06;10.23;;;9.73;;
2157;SDS011;41972;48.774;9.282;2022-09-30T15:23:39;9.03;;;8.43;;
2157;SDS011;41972;48.774;9.282;2022-09-30T15:26:09;13.27;;;12.60;;
2157;SDS011;41972;48.774;9.282;2022-09-30T15:28:37;14.10;;;13.43;;
2157;SDS011;41972;48.774;9.282;2022-09-30T15:31:04;23.83;;;23.03;;
2157;SDS011;41972;48.774;9.282;2022-09-30T15:33:31;14.83;;;14.23;;
2157;SDS011;41972;48.774;9.282;2022-09-30T15:36:12;5.90;;;5.60;;
2157;SDS011;41972;48.774;9.282;2022-09-30T15:38:44;7.13;;;6.53;;
2157;SDS011;41972;48.774;9.282;2022-09-30T15:41:13;27.57;;;26.57;;
2157;SDS011;41972;48.774;9.282;2022-09-30T15:43:46;28.43;;;27.17;;
2157;SDS011;41972;48.774;9.282;2022-09-30T15:46:19;10.50;;;10.00;;
2157;SDS011;41972;48.774;9.282;2022-09-30T15:48:51;27.03;;;25.90;;
2157;SDS011;41972;48.774;9.282;2022-09-30T15:51:22;23.87;;;22.87;;
2157;SDS011;41972;48.774;9.282;2022-09-30T15:53:48;21.90;;;21.10;;
2157;SDS011;41972;48.774;9.282;2022-09-30T15:56:16;9.23;;;8.70;;
2157;SDS011;41972;48.774;9.282;2022-09-30T16:01:23;15.70;;;14.90;;
2157;SDS011;41972;48.774;9.282;2022-09-30T16:06:51;14.03;;;13.43;;
2157;SDS011;41972;48.774;9.282;2022-09-30T16:09:21;7.37;;;6.77;;
2157;SDS011;41972;48.774;9.282;2022-09-30T16:11:59;8.70;;;8.30;;
2157;SDS011;41972;48.774;9.282;2022-09-30T16:14:30;12.87;;;12.17;;
2157;SDS011;41972;48.774;9.282;2022-09-30T16:17:00;27.37;;;22.97;;
2157;SDS011;41972;48.774;9.282;2022-09-30T16:19:27;17.80;;;16.10;;
2157;SDS011;41972;48.774;9.282;2022-09-30T16:21:54;15.63;;;13.60;;
2157;SDS011;41972;48.774;9.282;2022-09-30T16:26:53;22.13;;;20.20;;
2157;SDS011;41972;48.774;9.282;2022-09-30T16:29:20;24.13;;;22.50;;
2157;SDS011;41972;48.774;9.282;2022-09-30T16:31:47;15.93;;;14.63;;
2157;SDS011;41972;48.774;9.282;2022-09-30T16:34:31;20.80;;;19.50;;
2157;SDS011;41972;48.774;9.282;2022-09-30T16:37:11;32.20;;;30.00;;
2157;SDS011;41972;48.774;9.282;2022-09-30T16:39:39;18.40;;;17.07;;
2157;SDS011;41972;48.774;9.282;2022-09-30T16:42:05;15.97;;;15.17;;
2157;SDS011;41972;48.774;9.282;2022-09-30T16:44:30;16.40;;;15.50;;
2157;SDS011;41972;48.774;9.282;2022-09-30T16:47:00;8.30;;;7.73;;
2157;SDS011;41972;48.774;9.282;2022-09-30T16:49:26;27.00;;;25.57;;
2157;SDS011;41972;48.774;9.282;2022-09-30T16:51:52;10.57;;;9.97;;
2157;SDS011;41972;48.774;9.282;2022-09-30T16:54:17;7.80;;;7.30;;
2157;SDS011;41972;48.774;9.282;2022-09-30T16:56:43;9.97;;;9.53;;
2157;SDS011;41972;48.774;9.282;2022-09-30T16:59:11;13.67;;;12.83;;
2157;SDS011;41972;48.774;9.282;2022-09-30T17:01:39;32.07;;;30.87;;
2157;SDS011;41972;48.774;9.282;2022-09-30T17:04:05;21.27;;;20.13;;
2157;SDS011;41972;48.774;9.282;2022-09-30T17:06:31;18.10;;;17.30;;
2157;SDS011;41972;48.774;9.282;2022-09-30T17:08:57;10.97;;;10.10;;
2157;SDS011;41972;48.774;9.282;2022-09-30T17:11:25;9.10;;;8.70;;
2157;SDS011;41972;48.774;9.282;2022-09-30T17:13:57;8.43;;;8.03;;
2157;SDS011;41972;48.774;9.282;2022-09-30T17:16:24;10.80;;;10.30;;
2157;SDS011;41972;48.774;9.282;2022-09-30T17:18:50;11.90;;;11.30;;
2157;SDS011;41972;48.774;9.282;2022-09-30T17:21:16;31.33;;;30.13;;
2157;SDS011;41972;48.774;9.282;2022-09-30T17:23:42;9.13;;;8.67;;
2157;SDS011;41972;48.774;9.282;2022-09-30T17:26:08;9.20;;;8.70;;
2157;SDS011;41972;48.774;9.282;2022-09-30T17:28:34;8.63;;;8.13;;
2157;SDS011;41972;48.774;9.282;2022-09-30T17:31:00;8.80;;;8.20;;
2157;SDS011;41972;48.774;9.282;2022-09-30T17:33:30;8.40;;;7.90;;
2157;SDS011;41972;48.774;9.282;2022-09-30T17:36:00;8.20;;;7.70;;
2157;SDS011;41972;48.774;9.282;2022-09-30T17:38:34;7.63;;;7.23;;
2157;SDS011;41972;48.774;9.282;2022-09-30T17:41:00;8.40;;;7.90;;
2157;SDS011;41972;48.774;9.282;2022-09-30T17:43:45;7.80;;;7.30;;
2157;SDS011;41972;48.774;9.282;2022-09-30T17:46:11;8.37;;;7.90;;
2157;SDS011;41972;48.774;9.282;2022-09-30T17:48:40;8.20;;;7.80;;
2157;SDS011;41972;48.774;9.282;2022-09-30T17:51:07;11.07;;;10.57;;
2157;SDS011;41972;48.774;9.282;2022-09-30T17:53:32;8.53;;;7.83;;
2157;SDS011;41972;48.774;9.282;2022-09-30T17:56:00;7.60;;;7.10;;
2157;SDS011;41972;48.774;9.282;2022-09-30T17:58:36;24.43;;;23.33;;
2157;SDS011;41972;48.774;9.282;2022-09-30T18:01:08;28.57;;;27.47;;
2157;SDS011;41972;48.774;9.282;2022-09-30T18:03:34;29.40;;;28.00;;
2157;SDS011;41972;48.774;9.282;2022-09-30T18:06:00;10.63;;;10.23;;
2157;SDS011;41972;48.774;9.282;2022-09-30T18:08:26;11.53;;;10.93;;
2157;SDS011;41972;48.774;9.282;2022-09-30T18:10:52;6.17;;;5.87;;
2157;SDS011;41972;48.774;9.282;2022-09-30T18:13:19;10.87;;;10.37;;
2157;SDS011;41972;48.774;9.282;2022-09-30T18:15:44;9.90;;;9.43;;
2157;SDS011;41972;48.774;9.282;2022-09-30T18:18:10;10.60;;;10.13;;
2157;SDS011;41972;48.774;9.282;2022-09-30T18:20:40;10.20;;;9.70;;
2157;SDS011;41972;48.774;9.282;2022-09-30T18:23:08;13.23;;;12.40;;
2157;SDS011;41972;48.774;9.282;2022-09-30T18:25:34;15.20;;;14.57;;
2157;SDS011;41972;48.774;9.282;2022-09-30T18:28:00;16.23;;;15.53;;